Laguna Park, Texas
Current Conditions -  °F | °C
As of 11:51 PM on Friday 24 Oct 2014 (Local Time) from KACT Reporting Station
Clear Clear  
Wind Chill: 69°   Ceiling: Unl
Heat Index: 69°   Visibility: 10mi
Dew Point: 60°   Wind: 9mph
Humidity: 73%   Direction: 180°S
Pressure: 30.13"   Gusts: NA
Location:  31.86°N, 97.38°W
Report Text: KACT 250451Z 18008KT 10SM CLR 21/16 A3013 RMK AO2 SLP196 T02060156
Loading
Personal Weather Stations






























Interactive Weather Map
Tropical Storm Tracking
New forecast layout! Learn more

10-Day Weather Forecast

Advertisements
Track Severe Weather on mobile